sensor_id;sensor_type;location;lat;lon;timestamp;P1;durP1;ratioP1;P2;durP2;ratioP2
76986;SDS011;65922;50.086;8.598;2024-01-07T00:00:45;0.6;;;1.8;;
76986;SDS011;65922;50.086;8.598;2024-01-07T00:01:46;1;;;3.1;;
76986;SDS011;65922;50.086;8.598;2024-01-07T00:02:45;0.5;;;2.4;;
76986;SDS011;65922;50.086;8.598;2024-01-07T00:03:45;1.2;;;2.4;;
76986;SDS011;65922;50.086;8.598;2024-01-07T00:04:45;0.9;;;6.6;;
76986;SDS011;65922;50.086;8.598;2024-01-07T00:05:45;0.4;;;3.1;;
76986;SDS011;65922;50.086;8.598;2024-01-07T00:06:46;0.3;;;1.5;;
76986;SDS011;65922;50.086;8.598;2024-01-07T00:07:45;0;;;1.1;;
76986;SDS011;65922;50.086;8.598;2024-01-07T00:08:45;0.5;;;3.5;;
76986;SDS011;65922;50.086;8.598;2024-01-07T00:09:46;0.6;;;1.8;;
76986;SDS011;65922;50.086;8.598;2024-01-07T00:10:45;0.3;;;1.2;;
76986;SDS011;65922;50.086;8.598;2024-01-07T00:11:45;0.4;;;1.7;;
76986;SDS011;65922;50.086;8.598;2024-01-07T00:12:45;0.9;;;3.5;;
76986;SDS011;65922;50.086;8.598;2024-01-07T00:13:45;0.1;;;0.8;;
76986;SDS011;65922;50.086;8.598;2024-01-07T00:14:45;0.8;;;2.8;;
76986;SDS011;65922;50.086;8.598;2024-01-07T00:15:45;0.4;;;1.2;;
76986;SDS011;65922;50.086;8.598;2024-01-07T00:16:45;0.6;;;1.3;;
76986;SDS011;65922;50.086;8.598;2024-01-07T00:17:45;0.7;;;1.6;;
76986;SDS011;65922;50.086;8.598;2024-01-07T00:18:45;0.5;;;1.4;;
76986;SDS011;65922;50.086;8.598;2024-01-07T00:19:45;1.4;;;3.1;;
76986;SDS011;65922;50.086;8.598;2024-01-07T00:20:45;0.6;;;1.6;;
76986;SDS011;65922;50.086;8.598;2024-01-07T00:21:45;0.4;;;1.5;;
76986;SDS011;65922;50.086;8.598;2024-01-07T00:22:45;0.5;;;5;;
76986;SDS011;65922;50.086;8.598;2024-01-07T00:23:45;0.3;;;1.2;;
76986;SDS011;65922;50.086;8.598;2024-01-07T00:24:45;0;;;0.6;;
76986;SDS011;65922;50.086;8.598;2024-01-07T00:25:45;0.6;;;3.2;;
76986;SDS011;65922;50.086;8.598;2024-01-07T00:26:45;0.3;;;2.5;;
76986;SDS011;65922;50.086;8.598;2024-01-07T00:27:45;0.4;;;3.5;;
76986;SDS011;65922;50.086;8.598;2024-01-07T00:28:45;0.3;;;1.9;;
76986;SDS011;65922;50.086;8.598;2024-01-07T00:29:45;0.9;;;2.4;;
76986;SDS011;65922;50.086;8.598;2024-01-07T00:30:45;0.4;;;2.5;;
76986;SDS011;65922;50.086;8.598;2024-01-07T00:31:45;0.3;;;1.5;;
76986;SDS011;65922;50.086;8.598;2024-01-07T00:32:45;0.4;;;0.5;;
76986;SDS011;65922;50.086;8.598;2024-01-07T00:33:45;0.3;;;0.6;;
76986;SDS011;65922;50.086;8.598;2024-01-07T00:34:45;0.2;;;0.8;;
76986;SDS011;65922;50.086;8.598;2024-01-07T00:35:45;0.3;;;2.1;;
76986;SDS011;65922;50.086;8.598;2024-01-07T00:36:45;0.6;;;2.4;;
76986;SDS011;65922;50.086;8.598;2024-01-07T00:37:45;0.4;;;0.4;;
76986;SDS011;65922;50.086;8.598;2024-01-07T00:38:45;0.4;;;1.3;;
76986;SDS011;65922;50.086;8.598;2024-01-07T00:39:45;1.6;;;2;;
76986;SDS011;65922;50.086;8.598;2024-01-07T00:40:45;0;;;0.1;;
76986;SDS011;65922;50.086;8.598;2024-01-07T00:41:45;0.3;;;1.1;;
76986;SDS011;65922;50.086;8.598;2024-01-07T00:42:45;0.3;;;2.6;;
76986;SDS011;65922;50.086;8.598;2024-01-07T00:43:45;0.4;;;1.5;;
76986;SDS011;65922;50.086;8.598;2024-01-07T00:44:45;1.7;;;2.3;;
76986;SDS011;65922;50.086;8.598;2024-01-07T00:45:45;1;;;3.9;;
76986;SDS011;65922;50.086;8.598;2024-01-07T00:46:45;0.2;;;0.9;;
76986;SDS011;65922;50.086;8.598;2024-01-07T00:47:45;0.5;;;1.6;;
76986;SDS011;65922;50.086;8.598;2024-01-07T00:48:45;0.3;;;1.3;;
76986;SDS011;65922;50.086;8.598;2024-01-07T00:49:45;0;;;1.1;;
76986;SDS011;65922;50.086;8.598;2024-01-07T00:50:45;0.6;;;1.6;;
76986;SDS011;65922;50.086;8.598;2024-01-07T00:51:45;0.3;;;0.8;;
76986;SDS011;65922;50.086;8.598;2024-01-07T00:52:45;0.4;;;2.1;;
76986;SDS011;65922;50.086;8.598;2024-01-07T00:53:45;0.1;;;2.3;;
76986;SDS011;65922;50.086;8.598;2024-01-07T00:54:45;0.3;;;2.3;;
76986;SDS011;65922;50.086;8.598;2024-01-07T00:55:45;0.4;;;1.6;;
76986;SDS011;65922;50.086;8.598;2024-01-07T00:56:45;0.2;;;1.4;;
76986;SDS011;65922;50.086;8.598;2024-01-07T00:57:45;0.8;;;1.1;;
76986;SDS011;65922;50.086;8.598;2024-01-07T00:58:45;0.2;;;1.6;;
76986;SDS011;65922;50.086;8.598;2024-01-07T00:59:45;0.4;;;1.7;;
76986;SDS011;65922;50.086;8.598;2024-01-07T01:00:45;0;;;1.8;;
76986;SDS011;65922;50.086;8.598;2024-01-07T01:01:45;0;;;1.1;;
76986;SDS011;65922;50.086;8.598;2024-01-07T01:02:45;0.1;;;2.2;;
76986;SDS011;65922;50.086;8.598;2024-01-07T01:03:45;0.6;;;1.1;;
76986;SDS011;65922;50.086;8.598;2024-01-07T01:04:45;0.2;;;1.6;;
76986;SDS011;65922;50.086;8.598;2024-01-07T01:05:45;0.1;;;1.3;;
76986;SDS011;65922;50.086;8.598;2024-01-07T01:06:45;0.2;;;2.3;;
76986;SDS011;65922;50.086;8.598;2024-01-07T01:07:45;0.4;;;2.1;;
76986;SDS011;65922;50.086;8.598;2024-01-07T01:08:47;0;;;0.5;;
76986;SDS011;65922;50.086;8.598;2024-01-07T01:09:45;0.2;;;3;;
76986;SDS011;65922;50.086;8.598;2024-01-07T01:10:45;0.2;;;0.9;;
76986;SDS011;65922;50.086;8.598;2024-01-07T01:11:45;0.6;;;1.5;;
76986;SDS011;65922;50.086;8.598;2024-01-07T01:12:45;1;;;2.4;;
76986;SDS011;65922;50.086;8.598;2024-01-07T01:13:46;0.6;;;1.6;;
76986;SDS011;65922;50.086;8.598;2024-01-07T01:14:45;0.2;;;1.8;;
76986;SDS011;65922;50.086;8.598;2024-01-07T01:15:45;0.4;;;0.5;;
76986;SDS011;65922;50.086;8.598;2024-01-07T01:16:45;0.9;;;1.6;;
76986;SDS011;65922;50.086;8.598;2024-01-07T01:17:45;0.5;;;2.1;;
76986;SDS011;65922;50.086;8.598;2024-01-07T01:18:45;0;;;1;;
76986;SDS011;65922;50.086;8.598;2024-01-07T01:19:45;0;;;0.1;;
76986;SDS011;65922;50.086;8.598;2024-01-07T01:20:45;0.3;;;1.3;;
76986;SDS011;65922;50.086;8.598;2024-01-07T01:21:45;0.1;;;0.9;;
76986;SDS011;65922;50.086;8.598;2024-01-07T01:22:45;0;;;0.8;;
76986;SDS011;65922;50.086;8.598;2024-01-07T01:23:46;0.3;;;2.3;;
76986;SDS011;65922;50.086;8.598;2024-01-07T01:24:45;0;;;0.7;;
76986;SDS011;65922;50.086;8.598;2024-01-07T01:25:45;0.9;;;1.5;;
76986;SDS011;65922;50.086;8.598;2024-01-07T01:26:45;0.1;;;2.6;;
76986;SDS011;65922;50.086;8.598;2024-01-07T01:27:45;0.5;;;0.7;;
76986;SDS011;65922;50.086;8.598;2024-01-07T01:28:45;0.4;;;1.4;;
76986;SDS011;65922;50.086;8.598;2024-01-07T01:29:45;0.3;;;1.2;;
76986;SDS011;65922;50.086;8.598;2024-01-07T01:30:45;0.3;;;1.5;;
76986;SDS011;65922;50.086;8.598;2024-01-07T01:31:45;0;;;1.3;;
76986;SDS011;65922;50.086;8.598;2024-01-07T01:32:45;0.3;;;2.1;;
76986;SDS011;65922;50.086;8.598;2024-01-07T01:33:45;0.4;;;1.2;;
76986;SDS011;65922;50.086;8.598;2024-01-07T01:34:45;0.2;;;1.4;;
76986;SDS011;65922;50.086;8.598;2024-01-07T01:35:45;0.9;;;1.5;;
76986;SDS011;65922;50.086;8.598;2024-01-07T01:36:45;0.3;;;1.2;;
76986;SDS011;65922;50.086;8.598;2024-01-07T01:37:45;0.2;;;1.3;;
76986;SDS011;65922;50.086;8.598;2024-01-07T01:38:45;0;;;1.9;;
76986;SDS011;65922;50.086;8.598;2024-01-07T01:39:45;0.1;;;1.5;;
76986;SDS011;65922;50.086;8.598;2024-01-07T01:40:50;0.1;;;0.7;;
76986;SDS011;65922;50.086;8.598;2024-01-07T01:41:45;0.1;;;0.7;;
76986;SDS011;65922;50.086;8.598;2024-01-07T01:42:46;0;;;1.5;;
76986;SDS011;65922;50.086;8.598;2024-01-07T01:43:45;0;;;0.6;;
76986;SDS011;65922;50.086;8.598;2024-01-07T01:44:45;0;;;1.5;;
76986;SDS011;65922;50.086;8.598;2024-01-07T01:45:45;0.3;;;0.4;;
76986;SDS011;65922;50.086;8.598;2024-01-07T01:46:45;0;;;0;;
76986;SDS011;65922;50.086;8.598;2024-01-07T01:47:45;0;;;0.5;;
76986;SDS011;65922;50.086;8.598;2024-01-07T01:48:45;0.1;;;2.3;;
76986;SDS011;65922;50.086;8.598;2024-01-07T01:49:45;0.1;;;0.4;;
76986;SDS011;65922;50.086;8.598;2024-01-07T01:50:46;0.1;;;1.6;;
76986;SDS011;65922;50.086;8.598;2024-01-07T01:51:45;0;;;1.1;;
76986;SDS011;65922;50.086;8.598;2024-01-07T01:52:45;0.1;;;0.8;;
76986;SDS011;65922;50.086;8.598;2024-01-07T01:53:45;0;;;1.3;;
76986;SDS011;65922;50.086;8.598;2024-01-07T01:54:45;0.1;;;9.3;;
76986;SDS011;65922;50.086;8.598;2024-01-07T01:55:45;0.5;;;2;;
76986;SDS011;65922;50.086;8.598;2024-01-07T01:56:45;0.1;;;1.4;;
76986;SDS011;65922;50.086;8.598;2024-01-07T01:57:45;0.5;;;1.7;;
76986;SDS011;65922;50.086;8.598;2024-01-07T01:58:45;0;;;0.3;;
76986;SDS011;65922;50.086;8.598;2024-01-07T01:59:45;0;;;0.7;;
76986;SDS011;65922;50.086;8.598;2024-01-07T02:00:45;0.6;;;1.6;;
76986;SDS011;65922;50.086;8.598;2024-01-07T02:01:45;0.3;;;1.4;;
76986;SDS011;65922;50.086;8.598;2024-01-07T02:02:45;0.5;;;1.5;;
76986;SDS011;65922;50.086;8.598;2024-01-07T02:03:45;0.4;;;1.2;;
76986;SDS011;65922;50.086;8.598;2024-01-07T02:04:45;0.3;;;2.4;;
76986;SDS011;65922;50.086;8.598;2024-01-07T02:05:45;0.3;;;1;;
76986;SDS011;65922;50.086;8.598;2024-01-07T02:06:45;0.1;;;1.8;;
76986;SDS011;65922;50.086;8.598;2024-01-07T02:07:45;0.5;;;2.2;;
76986;SDS011;65922;50.086;8.598;2024-01-07T02:08:45;0;;;0.6;;
76986;SDS011;65922;50.086;8.598;2024-01-07T02:09:45;0.5;;;2.3;;
76986;SDS011;65922;50.086;8.598;2024-01-07T02:10:45;0.4;;;3.7;;
76986;SDS011;65922;50.086;8.598;2024-01-07T02:11:59;0.1;;;2.2;;
76986;SDS011;65922;50.086;8.598;2024-01-07T02:12:45;0.3;;;1.3;;
76986;SDS011;65922;50.086;8.598;2024-01-07T02:13:45;0.7;;;2.2;;
76986;SDS011;65922;50.086;8.598;2024-01-07T02:14:45;0;;;0.9;;
76986;SDS011;65922;50.086;8.598;2024-01-07T02:15:45;0.1;;;3.6;;
76986;SDS011;65922;50.086;8.598;2024-01-07T02:16:45;0;;;0.3;;
76986;SDS011;65922;50.086;8.598;2024-01-07T02:17:45;0.6;;;0.6;;
76986;SDS011;65922;50.086;8.598;2024-01-07T02:18:45;0.1;;;0.9;;
76986;SDS011;65922;50.086;8.598;2024-01-07T02:19:45;0;;;0.6;;
76986;SDS011;65922;50.086;8.598;2024-01-07T02:20:45;0.2;;;2.8;;
76986;SDS011;65922;50.086;8.598;2024-01-07T02:21:45;0;;;0.4;;
76986;SDS011;65922;50.086;8.598;2024-01-07T02:22:45;0.6;;;2.3;;
76986;SDS011;65922;50.086;8.598;2024-01-07T02:23:45;0;;;1.9;;
76986;SDS011;65922;50.086;8.598;2024-01-07T02:24:45;0.3;;;1.6;;
76986;SDS011;65922;50.086;8.598;2024-01-07T02:25:45;0.2;;;2.1;;
76986;SDS011;65922;50.086;8.598;2024-01-07T02:26:45;0.2;;;2;;
76986;SDS011;65922;50.086;8.598;2024-01-07T02:27:45;0.1;;;6.1;;
76986;SDS011;65922;50.086;8.598;2024-01-07T02:28:45;0.2;;;1.1;;
76986;SDS011;65922;50.086;8.598;2024-01-07T02:29:45;0.1;;;1.3;;
76986;SDS011;65922;50.086;8.598;2024-01-07T02:30:45;0;;;1.4;;
76986;SDS011;65922;50.086;8.598;2024-01-07T02:31:45;0;;;0.9;;
76986;SDS011;65922;50.086;8.598;2024-01-07T02:32:45;0.1;;;1.2;;
76986;SDS011;65922;50.086;8.598;2024-01-07T02:33:45;0;;;0.4;;
76986;SDS011;65922;50.086;8.598;2024-01-07T02:34:45;0.2;;;2;;
76986;SDS011;65922;50.086;8.598;2024-01-07T02:35:45;0.2;;;1.6;;
76986;SDS011;65922;50.086;8.598;2024-01-07T02:36:45;0;;;0.8;;
76986;SDS011;65922;50.086;8.598;2024-01-07T02:37:45;0.3;;;2.9;;
76986;SDS011;65922;50.086;8.598;2024-01-07T02:38:45;0;;;0.5;;
76986;SDS011;65922;50.086;8.598;2024-01-07T02:39:45;0;;;0;;
76986;SDS011;65922;50.086;8.598;2024-01-07T02:40:45;0.3;;;1.1;;
76986;SDS011;65922;50.086;8.598;2024-01-07T02:41:45;0.5;;;2.3;;
76986;SDS011;65922;50.086;8.598;2024-01-07T02:42:45;0.8;;;2.5;;
76986;SDS011;65922;50.086;8.598;2024-01-07T02:43:45;0.5;;;1;;
76986;SDS011;65922;50.086;8.598;2024-01-07T02:44:45;0;;;1.1;;
76986;SDS011;65922;50.086;8.598;2024-01-07T02:45:45;1.1;;;2.7;;
76986;SDS011;65922;50.086;8.598;2024-01-07T02:46:45;0.7;;;2.5;;
76986;SDS011;65922;50.086;8.598;2024-01-07T02:47:45;0.1;;;1.8;;
76986;SDS011;65922;50.086;8.598;2024-01-07T02:48:45;0.1;;;1.1;;
76986;SDS011;65922;50.086;8.598;2024-01-07T02:49:45;0.2;;;2.1;;
76986;SDS011;65922;50.086;8.598;2024-01-07T02:50:45;0.4;;;2;;
76986;SDS011;65922;50.086;8.598;2024-01-07T02:51:45;0.3;;;2.4;;
76986;SDS011;65922;50.086;8.598;2024-01-07T02:52:45;1;;;3.8;;
76986;SDS011;65922;50.086;8.598;2024-01-07T02:53:45;0.2;;;0.9;;
76986;SDS011;65922;50.086;8.598;2024-01-07T02:54:45;0.7;;;2.1;;
76986;SDS011;65922;50.086;8.598;2024-01-07T02:55:45;0.4;;;1.7;;
76986;SDS011;65922;50.086;8.598;2024-01-07T02:56:45;0.6;;;3;;
76986;SDS011;65922;50.086;8.598;2024-01-07T02:57:45;0.1;;;1;;
76986;SDS011;65922;50.086;8.598;2024-01-07T02:58:45;0.2;;;0.6;;
76986;SDS011;65922;50.086;8.598;2024-01-07T02:59:45;0.3;;;1;;
76986;SDS011;65922;50.086;8.598;2024-01-07T03:00:45;0;;;4.5;;
76986;SDS011;65922;50.086;8.598;2024-01-07T03:01:45;0.1;;;1.3;;
76986;SDS011;65922;50.086;8.598;2024-01-07T03:02:45;0.2;;;2.5;;
76986;SDS011;65922;50.086;8.598;2024-01-07T03:03:45;0.3;;;1.8;;
76986;SDS011;65922;50.086;8.598;2024-01-07T03:04:45;0;;;0.1;;
76986;SDS011;65922;50.086;8.598;2024-01-07T03:05:45;0.5;;;2.2;;
76986;SDS011;65922;50.086;8.598;2024-01-07T03:06:45;0.1;;;1.9;;
76986;SDS011;65922;50.086;8.598;2024-01-07T03:07:45;0;;;0.2;;
76986;SDS011;65922;50.086;8.598;2024-01-07T03:08:46;0.8;;;1.3;;
76986;SDS011;65922;50.086;8.598;2024-01-07T03:09:45;0.2;;;3.5;;
76986;SDS011;65922;50.086;8.598;2024-01-07T03:10:45;0.1;;;0.4;;
76986;SDS011;65922;50.086;8.598;2024-01-07T03:11:45;0.3;;;1.7;;
76986;SDS011;65922;50.086;8.598;2024-01-07T03:12:45;0.1;;;1.5;;
76986;SDS011;65922;50.086;8.598;2024-01-07T03:13:45;0.8;;;2.9;;
76986;SDS011;65922;50.086;8.598;2024-01-07T03:14:45;0.9;;;2.1;;
76986;SDS011;65922;50.086;8.598;2024-01-07T03:15:45;0.5;;;2.3;;
76986;SDS011;65922;50.086;8.598;2024-01-07T03:16:45;0.4;;;2.8;;
76986;SDS011;65922;50.086;8.598;2024-01-07T03:17:45;0.5;;;3.5;;
76986;SDS011;65922;50.086;8.598;2024-01-07T03:18:45;0.6;;;2.6;;
76986;SDS011;65922;50.086;8.598;2024-01-07T03:19:45;0.5;;;1.5;;
76986;SDS011;65922;50.086;8.598;2024-01-07T03:20:45;0.8;;;2.3;;
76986;SDS011;65922;50.086;8.598;2024-01-07T03:21:45;0.6;;;3.1;;
76986;SDS011;65922;50.086;8.598;2024-01-07T03:22:45;0.1;;;1.5;;
76986;SDS011;65922;50.086;8.598;2024-01-07T03:23:45;0.7;;;3.9;;
76986;SDS011;65922;50.086;8.598;2024-01-07T03:24:45;0.8;;;1.8;;
76986;SDS011;65922;50.086;8.598;2024-01-07T03:25:45;1.1;;;2.9;;
76986;SDS011;65922;50.086;8.598;2024-01-07T03:26:45;0;;;0.2;;
76986;SDS011;65922;50.086;8.598;2024-01-07T03:27:45;1.4;;;3.6;;
76986;SDS011;65922;50.086;8.598;2024-01-07T03:28:45;0.7;;;5.2;;
76986;SDS011;65922;50.086;8.598;2024-01-07T03:29:45;0.9;;;4;;
76986;SDS011;65922;50.086;8.598;2024-01-07T03:30:45;0.3;;;1.9;;
76986;SDS011;65922;50.086;8.598;2024-01-07T03:31:45;0.5;;;2.1;;
76986;SDS011;65922;50.086;8.598;2024-01-07T03:32:45;0.8;;;2.6;;
76986;SDS011;65922;50.086;8.598;2024-01-07T03:33:45;0.6;;;2.9;;
76986;SDS011;65922;50.086;8.598;2024-01-07T03:34:45;0.7;;;0.9;;
76986;SDS011;65922;50.086;8.598;2024-01-07T03:35:45;0.7;;;1.6;;
76986;SDS011;65922;50.086;8.598;2024-01-07T03:36:45;0.6;;;2.2;;
76986;SDS011;65922;50.086;8.598;2024-01-07T03:37:45;0.7;;;3.3;;
76986;SDS011;65922;50.086;8.598;2024-01-07T03:38:45;0.3;;;1.1;;
76986;SDS011;65922;50.086;8.598;2024-01-07T03:39:46;1.3;;;5.9;;
76986;SDS011;65922;50.086;8.598;2024-01-07T03:40:45;0.6;;;3;;
76986;SDS011;65922;50.086;8.598;2024-01-07T03:41:45;0.9;;;1.7;;
76986;SDS011;65922;50.086;8.598;2024-01-07T03:42:45;0.3;;;3.8;;
76986;SDS011;65922;50.086;8.598;2024-01-07T03:43:45;1.1;;;2.4;;
76986;SDS011;65922;50.086;8.598;2024-01-07T03:44:45;1.1;;;3.7;;
76986;SDS011;65922;50.086;8.598;2024-01-07T03:45:45;1.5;;;3.3;;
76986;SDS011;65922;50.086;8.598;2024-01-07T03:46:45;0.6;;;3.2;;
76986;SDS011;65922;50.086;8.598;2024-01-07T03:47:45;1.1;;;5.4;;
76986;SDS011;65922;50.086;8.598;2024-01-07T03:48:45;0.3;;;1.1;;
76986;SDS011;65922;50.086;8.598;2024-01-07T03:49:45;1.9;;;3.9;;
76986;SDS011;65922;50.086;8.598;2024-01-07T03:50:45;0.3;;;1.7;;
76986;SDS011;65922;50.086;8.598;2024-01-07T03:51:45;0.4;;;2.7;;
76986;SDS011;65922;50.086;8.598;2024-01-07T03:52:45;1;;;3.8;;
76986;SDS011;65922;50.086;8.598;2024-01-07T03:53:45;1.4;;;4;;
76986;SDS011;65922;50.086;8.598;2024-01-07T03:54:49;0.7;;;2.4;;
76986;SDS011;65922;50.086;8.598;2024-01-07T03:55:45;0.3;;;0.8;;
76986;SDS011;65922;50.086;8.598;2024-01-07T03:56:45;1.3;;;3.6;;
76986;SDS011;65922;50.086;8.598;2024-01-07T03:57:45;1.2;;;5.6;;
76986;SDS011;65922;50.086;8.598;2024-01-07T03:58:45;0.5;;;0.9;;
76986;SDS011;65922;50.086;8.598;2024-01-07T03:59:45;0.8;;;4.6;;
76986;SDS011;65922;50.086;8.598;2024-01-07T04:00:45;0.3;;;1.2;;
76986;SDS011;65922;50.086;8.598;2024-01-07T04:01:45;0.8;;;3.9;;
76986;SDS011;65922;50.086;8.598;2024-01-07T04:02:45;0.4;;;3.1;;
76986;SDS011;65922;50.086;8.598;2024-01-07T04:03:45;0.4;;;2.5;;
76986;SDS011;65922;50.086;8.598;2024-01-07T04:04:45;0.9;;;2.4;;
76986;SDS011;65922;50.086;8.598;2024-01-07T04:05:45;0.3;;;2.5;;
76986;SDS011;65922;50.086;8.598;2024-01-07T04:06:45;0.3;;;2.8;;
76986;SDS011;65922;50.086;8.598;2024-01-07T04:07:45;0.5;;;2.6;;
76986;SDS011;65922;50.086;8.598;2024-01-07T04:08:45;1.4;;;3.1;;
76986;SDS011;65922;50.086;8.598;2024-01-07T04:09:45;1.1;;;2.2;;
76986;SDS011;65922;50.086;8.598;2024-01-07T04:10:45;1.4;;;4.2;;
76986;SDS011;65922;50.086;8.598;2024-01-07T04:11:45;0.6;;;1.8;;
76986;SDS011;65922;50.086;8.598;2024-01-07T04:12:45;0.8;;;2.4;;
76986;SDS011;65922;50.086;8.598;2024-01-07T04:13:45;0.4;;;2.5;;
76986;SDS011;65922;50.086;8.598;2024-01-07T04:14:45;0.7;;;2.6;;
76986;SDS011;65922;50.086;8.598;2024-01-07T04:15:45;0.8;;;4.4;;
76986;SDS011;65922;50.086;8.598;2024-01-07T04:16:45;0.5;;;2.3;;
76986;SDS011;65922;50.086;8.598;2024-01-07T04:17:45;0.7;;;4.8;;
76986;SDS011;65922;50.086;8.598;2024-01-07T04:18:45;0.1;;;0.8;;
76986;SDS011;65922;50.086;8.598;2024-01-07T04:19:45;0.9;;;3;;
76986;SDS011;65922;50.086;8.598;2024-01-07T04:20:45;1.7;;;3.5;;
76986;SDS011;65922;50.086;8.598;2024-01-07T04:21:45;0.1;;;3.4;;
76986;SDS011;65922;50.086;8.598;2024-01-07T04:22:45;1;;;4.8;;
76986;SDS011;65922;50.086;8.598;2024-01-07T04:23:45;1;;;2.7;;
76986;SDS011;65922;50.086;8.598;2024-01-07T04:24:45;1.2;;;3.7;;
76986;SDS011;65922;50.086;8.598;2024-01-07T04:25:45;2.3;;;8.2;;
76986;SDS011;65922;50.086;8.598;2024-01-07T04:26:45;1.3;;;3.9;;
76986;SDS011;65922;50.086;8.598;2024-01-07T04:27:45;0.7;;;2;;
76986;SDS011;65922;50.086;8.598;2024-01-07T04:28:45;1.5;;;2.9;;
76986;SDS011;65922;50.086;8.598;2024-01-07T04:29:45;0.3;;;2.6;;
76986;SDS011;65922;50.086;8.598;2024-01-07T04:30:45;0.5;;;2.7;;
76986;SDS011;65922;50.086;8.598;2024-01-07T04:31:45;1;;;2.9;;
76986;SDS011;65922;50.086;8.598;2024-01-07T04:32:45;1.3;;;2.1;;
76986;SDS011;65922;50.086;8.598;2024-01-07T04:33:45;0.8;;;3.2;;
76986;SDS011;65922;50.086;8.598;2024-01-07T04:34:45;0.9;;;5;;
76986;SDS011;65922;50.086;8.598;2024-01-07T04:35:45;1;;;3.8;;
76986;SDS011;65922;50.086;8.598;2024-01-07T04:36:45;0.7;;;2.2;;
76986;SDS011;65922;50.086;8.598;2024-01-07T04:37:45;0.3;;;2.4;;
76986;SDS011;65922;50.086;8.598;2024-01-07T04:38:45;0.6;;;3.2;;
76986;SDS011;65922;50.086;8.598;2024-01-07T04:39:45;0.8;;;3.3;;
76986;SDS011;65922;50.086;8.598;2024-01-07T04:40:45;0.8;;;2.3;;
76986;SDS011;65922;50.086;8.598;2024-01-07T04:41:45;0.9;;;4.9;;
76986;SDS011;65922;50.086;8.598;2024-01-07T04:42:45;0.9;;;4.1;;
76986;SDS011;65922;50.086;8.598;2024-01-07T04:43:45;0.6;;;3.6;;
76986;SDS011;65922;50.086;8.598;2024-01-07T04:44:45;0.5;;;4;;
76986;SDS011;65922;50.086;8.598;2024-01-07T04:45:45;1.3;;;4.8;;
76986;SDS011;65922;50.086;8.598;2024-01-07T04:46:47;2.1;;;4.9;;
76986;SDS011;65922;50.086;8.598;2024-01-07T04:47:45;1;;;3;;
76986;SDS011;65922;50.086;8.598;2024-01-07T04:48:45;1;;;3.4;;
76986;SDS011;65922;50.086;8.598;2024-01-07T04:49:45;0.7;;;0.9;;
76986;SDS011;65922;50.086;8.598;2024-01-07T04:50:45;1.8;;;5.2;;
76986;SDS011;65922;50.086;8.598;2024-01-07T04:51:45;1.6;;;5.2;;
76986;SDS011;65922;50.086;8.598;2024-01-07T04:52:45;0.1;;;0.4;;
76986;SDS011;65922;50.086;8.598;2024-01-07T04:53:45;1.3;;;3.9;;
76986;SDS011;65922;50.086;8.598;2024-01-07T04:54:45;0.7;;;3.7;;
76986;SDS011;65922;50.086;8.598;2024-01-07T04:55:45;1.7;;;4.4;;
76986;SDS011;65922;50.086;8.598;2024-01-07T04:56:45;2.2;;;6.2;;
76986;SDS011;65922;50.086;8.598;2024-01-07T04:57:45;1.7;;;7.7;;
76986;SDS011;65922;50.086;8.598;2024-01-07T04:58:45;1.2;;;3.9;;
76986;SDS011;65922;50.086;8.598;2024-01-07T04:59:45;1.3;;;5.4;;
76986;SDS011;65922;50.086;8.598;2024-01-07T05:00:45;1.8;;;3.3;;
76986;SDS011;65922;50.086;8.598;2024-01-07T05:01:45;1.5;;;4.9;;
76986;SDS011;65922;50.086;8.598;2024-01-07T05:02:45;1.3;;;2.8;;
76986;SDS011;65922;50.086;8.598;2024-01-07T05:03:45;1.5;;;2.6;;
76986;SDS011;65922;50.086;8.598;2024-01-07T05:04:45;1.5;;;2.7;;
76986;SDS011;65922;50.086;8.598;2024-01-07T05:05:45;1.7;;;13.1;;
76986;SDS011;65922;50.086;8.598;2024-01-07T05:06:45;2;;;7.2;;
76986;SDS011;65922;50.086;8.598;2024-01-07T05:07:49;1.9;;;5.7;;
76986;SDS011;65922;50.086;8.598;2024-01-07T05:08:45;1.9;;;4.3;;
76986;SDS011;65922;50.086;8.598;2024-01-07T05:09:45;2.1;;;4.9;;
76986;SDS011;65922;50.086;8.598;2024-01-07T05:10:45;2;;;5.4;;
76986;SDS011;65922;50.086;8.598;2024-01-07T05:11:45;1.4;;;3.8;;
76986;SDS011;65922;50.086;8.598;2024-01-07T05:12:45;5.7;;;6.9;;
76986;SDS011;65922;50.086;8.598;2024-01-07T05:13:45;2;;;3.8;;
76986;SDS011;65922;50.086;8.598;2024-01-07T05:14:45;1.6;;;5.9;;
76986;SDS011;65922;50.086;8.598;2024-01-07T05:15:45;1.4;;;5.9;;
76986;SDS011;65922;50.086;8.598;2024-01-07T05:16:45;3.8;;;9.1;;
76986;SDS011;65922;50.086;8.598;2024-01-07T05:17:45;3;;;6.3;;
76986;SDS011;65922;50.086;8.598;2024-01-07T05:18:45;2.5;;;6.8;;
76986;SDS011;65922;50.086;8.598;2024-01-07T05:19:45;3;;;6.5;;
76986;SDS011;65922;50.086;8.598;2024-01-07T05:20:45;2.8;;;5.6;;
76986;SDS011;65922;50.086;8.598;2024-01-07T05:21:45;1.9;;;4.2;;
76986;SDS011;65922;50.086;8.598;2024-01-07T05:22:45;3.4;;;10.4;;
76986;SDS011;65922;50.086;8.598;2024-01-07T05:23:45;2.1;;;6.9;;
76986;SDS011;65922;50.086;8.598;2024-01-07T05:24:45;3.1;;;6.5;;
76986;SDS011;65922;50.086;8.598;2024-01-07T05:25:45;2.8;;;9.6;;
76986;SDS011;65922;50.086;8.598;2024-01-07T05:26:45;2.5;;;5.8;;
76986;SDS011;65922;50.086;8.598;2024-01-07T05:27:45;2.4;;;9.5;;
76986;SDS011;65922;50.086;8.598;2024-01-07T05:28:45;0.4;;;0.4;;
76986;SDS011;65922;50.086;8.598;2024-01-07T05:29:45;2.1;;;4.8;;
76986;SDS011;65922;50.086;8.598;2024-01-07T05:30:45;2.6;;;6.5;;
76986;SDS011;65922;50.086;8.598;2024-01-07T05:31:45;3.1;;;6.5;;
76986;SDS011;65922;50.086;8.598;2024-01-07T05:32:45;1.4;;;3.2;;
76986;SDS011;65922;50.086;8.598;2024-01-07T05:33:45;3.4;;;6.7;;
76986;SDS011;65922;50.086;8.598;2024-01-07T05:34:45;1.1;;;3.7;;
76986;SDS011;65922;50.086;8.598;2024-01-07T05:35:45;2.3;;;5.6;;
76986;SDS011;65922;50.086;8.598;2024-01-07T05:36:45;1.4;;;3.3;;
76986;SDS011;65922;50.086;8.598;2024-01-07T05:37:45;3.1;;;6.7;;
76986;SDS011;65922;50.086;8.598;2024-01-07T05:38:45;3.3;;;8.1;;
76986;SDS011;65922;50.086;8.598;2024-01-07T05:39:45;1.9;;;4;;
76986;SDS011;65922;50.086;8.598;2024-01-07T05:40:45;2.7;;;7.2;;
76986;SDS011;65922;50.086;8.598;2024-01-07T05:41:45;3;;;3.7;;
76986;SDS011;65922;50.086;8.598;2024-01-07T05:42:45;2.2;;;4.9;;
76986;SDS011;65922;50.086;8.598;2024-01-07T05:43:45;3.1;;;7.4;;
76986;SDS011;65922;50.086;8.598;2024-01-07T05:44:45;1.2;;;2.5;;
76986;SDS011;65922;50.086;8.598;2024-01-07T05:45:45;1.2;;;2.5;;
76986;SDS011;65922;50.086;8.598;2024-01-07T05:46:45;0.6;;;1.3;;
76986;SDS011;65922;50.086;8.598;2024-01-07T05:47:45;1.6;;;7.7;;
76986;SDS011;65922;50.086;8.598;2024-01-07T05:48:46;2.4;;;4.8;;
76986;SDS011;65922;50.086;8.598;2024-01-07T05:49:45;1.8;;;7.3;;
76986;SDS011;65922;50.086;8.598;2024-01-07T05:50:45;3.4;;;8.8;;
76986;SDS011;65922;50.086;8.598;2024-01-07T05:51:45;4.3;;;9.9;;
76986;SDS011;65922;50.086;8.598;2024-01-07T05:52:45;2.7;;;5.4;;
76986;SDS011;65922;50.086;8.598;2024-01-07T05:53:45;3.4;;;6.8;;
76986;SDS011;65922;50.086;8.598;2024-01-07T05:54:45;2.4;;;3.3;;
76986;SDS011;65922;50.086;8.598;2024-01-07T05:55:45;2.1;;;3.6;;
76986;SDS011;65922;50.086;8.598;2024-01-07T05:56:45;3.4;;;7.8;;
76986;SDS011;65922;50.086;8.598;2024-01-07T05:57:45;0.7;;;3;;
76986;SDS011;65922;50.086;8.598;2024-01-07T05:58:45;0.5;;;0.6;;
76986;SDS011;65922;50.086;8.598;2024-01-07T05:59:45;2.2;;;3.6;;
76986;SDS011;65922;50.086;8.598;2024-01-07T06:00:45;3.2;;;7.1;;
76986;SDS011;65922;50.086;8.598;2024-01-07T06:01:45;2.2;;;6.4;;
76986;SDS011;65922;50.086;8.598;2024-01-07T06:02:45;1.7;;;3.9;;
76986;SDS011;65922;50.086;8.598;2024-01-07T06:03:45;3.1;;;7;;
76986;SDS011;65922;50.086;8.598;2024-01-07T06:04:45;1.3;;;2.2;;
76986;SDS011;65922;50.086;8.598;2024-01-07T06:05:45;2.8;;;5.8;;
76986;SDS011;65922;50.086;8.598;2024-01-07T06:06:45;2.7;;;6;;
76986;SDS011;65922;50.086;8.598;2024-01-07T06:07:45;3.6;;;5.4;;
76986;SDS011;65922;50.086;8.598;2024-01-07T06:08:45;0.3;;;0.5;;
76986;SDS011;65922;50.086;8.598;2024-01-07T06:09:45;1.3;;;3.1;;
76986;SDS011;65922;50.086;8.598;2024-01-07T06:10:45;1.2;;;2.7;;
76986;SDS011;65922;50.086;8.598;2024-01-07T06:11:45;1.9;;;5.8;;
76986;SDS011;65922;50.086;8.598;2024-01-07T06:12:45;2.6;;;11.9;;
76986;SDS011;65922;50.086;8.598;2024-01-07T06:13:45;1.5;;;3;;
76986;SDS011;65922;50.086;8.598;2024-01-07T06:14:45;2.5;;;4.9;;
76986;SDS011;65922;50.086;8.598;2024-01-07T06:15:45;1.9;;;5.5;;